createdAt,value
2018-10-03T00:02:02.544Z,17.87
2018-10-03T00:04:31.089Z,20.17
2018-10-03T00:06:59.483Z,16.30
2018-10-03T00:09:27.890Z,16.57
2018-10-03T00:11:56.280Z,19.93
2018-10-03T00:14:24.664Z,16.63
2018-10-03T00:16:53.058Z,19.10
2018-10-03T00:19:21.532Z,17.13
2018-10-03T00:21:49.888Z,18.17
2018-10-03T00:24:18.267Z,17.00
2018-10-03T00:26:46.638Z,16.70
2018-10-03T00:29:15.024Z,15.50
2018-10-03T00:31:43.397Z,16.27
2018-10-03T00:34:11.796Z,16.53
2018-10-03T00:36:40.167Z,16.67
2018-10-03T00:39:09.931Z,19.10
2018-10-03T00:41:38.711Z,12.70
2018-10-03T00:44:07.319Z,14.57
2018-10-03T00:46:35.687Z,14.07
2018-10-03T00:49:04.067Z,14.07
2018-10-03T00:51:32.422Z,12.13
2018-10-03T00:54:00.806Z,15.07
2018-10-03T00:56:29.600Z,15.30
2018-10-03T00:58:58.404Z,14.87
2018-10-03T01:01:26.766Z,14.80
2018-10-03T01:03:55.156Z,17.03
2018-10-03T01:06:23.523Z,12.33
2018-10-03T01:08:51.964Z,11.83
2018-10-03T01:11:20.340Z,14.80
2018-10-03T01:13:48.991Z,13.57
2018-10-03T01:16:17.777Z,13.27
2018-10-03T01:18:46.164Z,14.97
2018-10-03T01:21:14.556Z,10.13
2018-10-03T01:23:43.016Z,15.40
2018-10-03T01:26:11.385Z,13.40
2018-10-03T01:28:39.780Z,15.60
2018-10-03T01:31:08.139Z,11.83
2018-10-03T01:33:36.517Z,14.30
2018-10-03T01:36:04.905Z,13.90
2018-10-03T01:38:33.362Z,13.37
2018-10-03T01:41:01.714Z,14.10
2018-10-03T01:43:30.100Z,12.43
2018-10-03T01:45:58.544Z,15.70
2018-10-03T01:48:26.914Z,16.37
2018-10-03T01:50:55.331Z,13.57
2018-10-03T01:53:23.751Z,13.63
2018-10-03T01:55:52.142Z,13.37
2018-10-03T01:58:20.504Z,14.70
2018-10-03T02:00:48.919Z,13.20
2018-10-03T02:03:17.292Z,11.77
2018-10-03T02:05:45.694Z,14.93
2018-10-03T02:08:14.077Z,9.73
2018-10-03T02:10:42.560Z,18.00
2018-10-03T02:13:11.081Z,15.60
2018-10-03T02:15:39.456Z,13.43
2018-10-03T02:18:07.831Z,11.13
2018-10-03T02:20:36.204Z,13.40
2018-10-03T02:23:04.580Z,13.67
2018-10-03T02:25:32.944Z,10.97
2018-10-03T02:28:01.324Z,11.37
2018-10-03T02:30:29.792Z,13.73
2018-10-03T02:32:58.181Z,11.17
2018-10-03T02:35:26.544Z,12.67
2018-10-03T02:37:54.943Z,16.23
2018-10-03T02:40:23.397Z,15.57
2018-10-03T02:42:51.780Z,11.47
2018-10-03T02:45:21.055Z,11.03
2018-10-03T02:47:51.059Z,12.53
2018-10-03T02:50:19.418Z,12.03
2018-10-03T02:52:47.871Z,12.30
2018-10-03T02:55:16.836Z,12.77
2018-10-03T02:57:45.388Z,10.83
2018-10-03T03:00:13.896Z,13.07
2018-10-03T03:02:42.260Z,12.00
2018-10-03T03:05:10.650Z,11.83
2018-10-03T03:07:45.634Z,12.57
2018-10-03T03:10:14.020Z,13.97
2018-10-03T03:12:42.411Z,12.57
2018-10-03T03:15:10.823Z,14.63
2018-10-03T03:17:39.244Z,11.90
2018-10-03T03:20:07.683Z,10.80
2018-10-03T03:22:36.041Z,9.77
2018-10-03T03:25:04.423Z,9.40
2018-10-03T03:27:32.856Z,11.77
2018-10-03T03:30:01.280Z,12.03
2018-10-03T03:32:29.664Z,12.07
2018-10-03T03:34:58.047Z,11.43
2018-10-03T03:37:26.424Z,12.80
2018-10-03T03:39:54.782Z,11.00
2018-10-03T03:42:23.160Z,12.03
2018-10-03T03:44:51.527Z,12.07
2018-10-03T03:47:19.915Z,13.50
2018-10-03T03:49:48.287Z,9.43
2018-10-03T03:52:16.663Z,12.47
2018-10-03T03:54:45.041Z,8.03
2018-10-03T03:57:13.500Z,11.17
2018-10-03T03:59:41.882Z,14.03
2018-10-03T04:02:10.469Z,14.30
2018-10-03T04:04:38.844Z,13.73
2018-10-03T04:07:07.230Z,13.93
2018-10-03T04:09:35.619Z,14.07
2018-10-03T04:12:04.000Z,17.33
2018-10-03T04:14:32.379Z,14.20
2018-10-03T04:17:00.767Z,11.03
2018-10-03T04:19:29.118Z,17.30
2018-10-03T04:21:57.495Z,13.70
2018-10-03T04:24:25.864Z,14.97
2018-10-03T04:26:54.247Z,19.37
2018-10-03T04:29:22.625Z,17.63
2018-10-03T04:31:50.983Z,20.67
2018-10-03T04:34:19.375Z,17.53
2018-10-03T04:36:47.736Z,16.47
2018-10-03T04:39:16.099Z,15.37
2018-10-03T04:41:44.491Z,14.67
2018-10-03T04:44:12.876Z,19.77
2018-10-03T04:46:41.268Z,17.17
2018-10-03T04:49:09.775Z,13.57
2018-10-03T04:51:38.139Z,14.23
2018-10-03T04:54:06.543Z,13.40
2018-10-03T04:56:34.947Z,13.67
2018-10-03T04:59:03.323Z,13.80
2018-10-03T05:01:31.755Z,11.10
2018-10-03T05:04:00.163Z,14.60
2018-10-03T05:06:28.530Z,14.87
2018-10-03T05:08:56.899Z,14.57
2018-10-03T05:11:25.362Z,11.93
2018-10-03T05:13:53.700Z,12.63
2018-10-03T05:16:22.059Z,12.63
2018-10-03T05:18:50.447Z,12.40
2018-10-03T05:21:18.822Z,12.60
2018-10-03T05:23:47.281Z,10.50
2018-10-03T05:26:15.657Z,15.10
2018-10-03T05:28:44.032Z,9.93
2018-10-03T05:31:12.421Z,13.90
2018-10-03T05:33:40.827Z,12.23
2018-10-03T05:36:09.282Z,12.60
2018-10-03T05:38:37.657Z,11.63
2018-10-03T05:41:06.235Z,15.57
2018-10-03T05:43:34.775Z,9.97
2018-10-03T05:46:03.188Z,10.70
2018-10-03T05:48:31.631Z,11.77
2018-10-03T05:50:59.951Z,12.57
2018-10-03T05:53:28.866Z,9.57
2018-10-03T05:55:57.255Z,9.53
2018-10-03T05:58:25.668Z,11.00
2018-10-03T06:00:54.022Z,9.87
2018-10-03T06:03:22.460Z,11.93
2018-10-03T06:05:50.827Z,13.23
2018-10-03T06:08:19.227Z,13.13
2018-10-03T06:10:47.618Z,9.23
2018-10-03T06:13:16.035Z,9.87
2018-10-03T06:15:44.771Z,12.37
2018-10-03T06:18:13.203Z,7.80
2018-10-03T06:20:41.635Z,9.83
2018-10-03T06:23:10.023Z,7.97
2018-10-03T06:25:38.411Z,15.53
2018-10-03T06:28:06.853Z,8.30
2018-10-03T06:30:35.224Z,13.60
2018-10-03T06:33:03.582Z,8.73
2018-10-03T06:35:32.040Z,9.33
2018-10-03T06:38:00.430Z,11.30
2018-10-03T06:40:28.873Z,7.63
2018-10-03T06:42:57.214Z,10.30
2018-10-03T06:45:25.646Z,7.20
2018-10-03T06:47:54.031Z,7.57
2018-10-03T06:50:22.405Z,9.83
2018-10-03T06:52:50.791Z,9.17
2018-10-03T06:55:19.151Z,8.10
2018-10-03T06:57:47.528Z,10.73
2018-10-03T07:00:15.899Z,11.03
2018-10-03T07:02:44.387Z,8.23
2018-10-03T07:05:12.767Z,8.60
2018-10-03T07:07:41.138Z,9.37
2018-10-03T07:10:09.511Z,10.33
2018-10-03T07:12:37.913Z,9.10
2018-10-03T07:15:06.395Z,10.53
2018-10-03T07:17:34.801Z,14.97
2018-10-03T07:20:03.328Z,10.77
2018-10-03T07:22:31.701Z,9.80
2018-10-03T07:25:00.078Z,7.97
2018-10-03T07:27:28.442Z,8.73
2018-10-03T07:29:56.840Z,8.07
2018-10-03T07:32:25.261Z,11.00
2018-10-03T07:34:53.644Z,7.97
2018-10-03T07:37:22.035Z,9.80
2018-10-03T07:39:50.418Z,6.83
2018-10-03T07:42:18.804Z,7.90
2018-10-03T07:44:47.189Z,9.93
2018-10-03T07:47:15.632Z,7.60
2018-10-03T07:49:44.017Z,10.30
2018-10-03T07:52:12.451Z,42.90
2018-10-03T07:54:40.835Z,18.97
2018-10-03T07:57:09.212Z,24.60
2018-10-03T07:59:37.756Z,12.27
2018-10-03T08:02:06.295Z,14.17
2018-10-03T08:04:34.658Z,11.73
2018-10-03T08:07:03.039Z,10.97
2018-10-03T08:09:31.404Z,12.50
2018-10-03T08:11:59.788Z,11.20
2018-10-03T08:14:28.154Z,14.40
2018-10-03T08:16:56.595Z,18.33
2018-10-03T08:19:24.976Z,30.53
2018-10-03T08:21:53.460Z,19.73
2018-10-03T08:24:21.970Z,26.43
2018-10-03T08:26:50.548Z,28.73
2018-10-03T08:29:18.935Z,25.93
2018-10-03T08:31:47.381Z,29.97
2018-10-03T08:34:15.886Z,22.93
2018-10-03T08:36:44.285Z,25.47
2018-10-03T08:39:14.105Z,24.00
2018-10-03T08:41:42.868Z,16.97
2018-10-03T08:44:11.787Z,20.97
2018-10-03T08:46:40.187Z,23.53
2018-10-03T08:49:08.592Z,22.70
2018-10-03T08:51:36.983Z,21.60
2018-10-03T08:54:05.401Z,24.53
2018-10-03T08:56:33.772Z,25.17
2018-10-03T08:59:02.156Z,21.53
2018-10-03T09:01:30.564Z,25.80
2018-10-03T09:03:58.940Z,20.90
2018-10-03T09:06:27.327Z,23.27
2018-10-03T09:08:55.698Z,27.07
2018-10-03T09:11:24.146Z,19.50
2018-10-03T09:13:52.515Z,19.00
2018-10-03T09:16:20.895Z,20.83
2018-10-03T09:18:49.287Z,15.70
2018-10-03T09:21:17.708Z,15.60
2018-10-03T09:23:46.059Z,17.00
2018-10-03T09:26:14.442Z,17.33
2018-10-03T09:28:42.825Z,16.53
2018-10-03T09:31:11.256Z,18.23
2018-10-03T09:33:39.646Z,21.53
2018-10-03T09:36:08.231Z,15.83
2018-10-03T09:38:36.882Z,19.23
2018-10-03T09:41:05.352Z,15.50
2018-10-03T09:43:33.864Z,17.17
2018-10-03T09:46:02.256Z,16.20
2018-10-03T09:48:30.655Z,16.70
2018-10-03T09:50:59.073Z,18.37
2018-10-03T09:53:27.452Z,16.97
2018-10-03T09:55:55.841Z,14.20
2018-10-03T09:58:24.349Z,12.87
2018-10-03T10:00:58.257Z,14.40
2018-10-03T10:03:26.586Z,13.73
2018-10-03T10:05:54.976Z,16.37
2018-10-03T10:08:23.343Z,12.70
2018-10-03T10:10:51.711Z,17.97
2018-10-03T10:13:20.107Z,15.27
2018-10-03T10:15:48.533Z,14.70
2018-10-03T10:18:16.911Z,11.27
2018-10-03T10:20:45.338Z,12.53
2018-10-03T10:23:13.723Z,20.37
2018-10-03T10:25:42.090Z,12.37
2018-10-03T10:28:10.963Z,21.80
2018-10-03T10:30:39.432Z,17.07
2018-10-03T10:33:08.045Z,17.47
2018-10-03T10:35:36.312Z,16.13
2018-10-03T10:38:04.680Z,18.20
2018-10-03T10:40:33.532Z,21.13
2018-10-03T10:43:01.788Z,24.53
2018-10-03T10:45:30.164Z,22.67
2018-10-03T10:47:59.103Z,33.13
2018-10-03T10:50:27.584Z,45.97
2018-10-03T10:52:55.888Z,42.30
2018-10-03T10:55:24.301Z,47.33
2018-10-03T10:57:53.176Z,41.20
2018-10-03T11:00:23.307Z,38.23
2018-10-03T11:02:51.683Z,37.63
2018-10-03T11:05:20.077Z,34.03
2018-10-03T11:07:48.445Z,31.37
2018-10-03T11:10:16.838Z,30.17
2018-10-03T11:12:45.198Z,27.93
2018-10-03T11:15:13.591Z,27.27
2018-10-03T11:17:42.003Z,26.53
2018-10-03T11:20:10.564Z,32.70
2018-10-03T11:22:39.035Z,34.77
2018-10-03T11:25:07.473Z,31.13
2018-10-03T11:27:35.895Z,32.13
2018-10-03T11:30:04.591Z,30.50
2018-10-03T11:32:32.970Z,29.07
2018-10-03T11:35:01.356Z,29.10
2018-10-03T11:37:29.749Z,28.77
2018-10-03T11:39:58.126Z,29.47
2018-10-03T11:42:26.552Z,21.30
2018-10-03T11:44:54.927Z,25.23
2018-10-03T11:47:23.320Z,20.50
2018-10-03T11:49:51.808Z,23.37
2018-10-03T11:52:20.234Z,17.87
2018-10-03T11:54:48.663Z,19.40
2018-10-03T11:57:17.055Z,19.27
2018-10-03T11:59:45.472Z,19.07
2018-10-03T12:02:13.907Z,19.30
2018-10-03T12:04:42.312Z,17.07
2018-10-03T12:07:10.688Z,16.77
2018-10-03T12:09:39.080Z,18.37
2018-10-03T12:12:07.544Z,20.53
2018-10-03T12:14:36.116Z,26.90
2018-10-03T12:17:04.495Z,28.57
2018-10-03T12:19:32.873Z,25.13
2018-10-03T12:22:01.365Z,24.43
2018-10-03T12:24:29.736Z,25.70
2018-10-03T12:26:58.117Z,23.63
2018-10-03T12:29:26.507Z,19.37
2018-10-03T12:31:54.969Z,18.70
2018-10-03T12:34:23.347Z,18.20
2018-10-03T12:36:51.759Z,17.83
2018-10-03T12:39:20.146Z,19.90
2018-10-03T12:41:48.544Z,26.97
2018-10-03T12:44:16.968Z,33.63
2018-10-03T12:46:45.339Z,41.00
2018-10-03T12:49:13.740Z,55.27
2018-10-03T12:51:42.120Z,44.83
2018-10-03T12:54:10.508Z,39.23
2018-10-03T12:56:39.121Z,37.13
2018-10-03T12:59:07.560Z,34.33
2018-10-03T13:01:35.959Z,32.60
2018-10-03T13:04:04.451Z,27.60
2018-10-03T13:06:32.823Z,30.57
2018-10-03T13:09:01.268Z,25.57
2018-10-03T13:11:29.851Z,23.10
2018-10-03T13:13:58.270Z,28.13
2018-10-03T13:16:26.681Z,35.43
2018-10-03T13:18:55.060Z,51.23
2018-10-03T13:21:23.432Z,37.33
2018-10-03T13:23:51.872Z,32.37
2018-10-03T13:26:20.358Z,36.20
2018-10-03T13:28:48.774Z,31.07
2018-10-03T13:31:17.159Z,26.70
2018-10-03T13:33:45.544Z,27.00
2018-10-03T13:36:14.111Z,26.60
2018-10-03T13:38:42.588Z,28.67
2018-10-03T13:41:11.037Z,24.63
2018-10-03T13:43:39.441Z,23.80
2018-10-03T13:46:08.009Z,27.83
2018-10-03T13:48:36.389Z,24.77
2018-10-03T13:51:04.788Z,20.43
2018-10-03T13:53:33.231Z,19.87
2018-10-03T13:56:01.707Z,22.63
2018-10-03T13:58:30.095Z,18.70
2018-10-03T14:00:58.551Z,18.80
2018-10-03T14:03:27.108Z,20.10
2018-10-03T14:05:55.500Z,21.70
2018-10-03T14:08:23.896Z,26.37
2018-10-03T14:10:52.336Z,33.33
2018-10-03T14:13:20.982Z,31.63
2018-10-03T14:15:49.452Z,33.80
2018-10-03T14:18:18.074Z,30.50
2018-10-03T14:20:46.501Z,29.43
2018-10-03T14:23:15.484Z,25.77
2018-10-03T14:25:43.924Z,25.47
2018-10-03T14:28:12.549Z,24.70
2018-10-03T14:30:40.948Z,25.33
2018-10-03T14:33:09.313Z,21.47
2018-10-03T14:35:37.709Z,20.37
2018-10-03T14:38:06.835Z,21.67
2018-10-03T14:40:35.240Z,22.20
2018-10-03T14:43:03.683Z,27.70
2018-10-03T14:45:32.053Z,27.77
2018-10-03T14:48:00.439Z,28.03
2018-10-03T14:50:28.884Z,26.90
2018-10-03T14:52:57.289Z,39.03
2018-10-03T14:55:25.672Z,30.67
2018-10-03T14:57:54.043Z,28.23
2018-10-03T15:00:22.422Z,28.60
2018-10-03T15:02:50.819Z,30.20
2018-10-03T15:05:19.239Z,25.03
2018-10-03T15:07:47.631Z,24.27
2018-10-03T15:10:16.017Z,29.93
2018-10-03T15:12:44.473Z,23.13
2018-10-03T15:15:12.791Z,29.10
2018-10-03T15:17:41.179Z,26.83
2018-10-03T15:20:09.589Z,29.07
2018-10-03T15:22:38.056Z,23.93
2018-10-03T15:25:06.537Z,30.60
2018-10-03T15:27:34.945Z,28.23
2018-10-03T15:30:03.403Z,29.07
2018-10-03T15:32:31.850Z,29.83
2018-10-03T15:35:00.256Z,30.17
2018-10-03T15:37:28.640Z,29.00
2018-10-03T15:39:57.052Z,27.63
2018-10-03T15:42:25.513Z,24.23
2018-10-03T15:44:53.908Z,25.60
2018-10-03T15:47:22.380Z,23.73
2018-10-03T15:49:50.874Z,22.33
2018-10-03T15:52:19.304Z,23.00
2018-10-03T15:54:47.752Z,19.37
2018-10-03T15:57:16.168Z,23.13
2018-10-03T15:59:44.536Z,25.23
2018-10-03T16:02:12.978Z,18.87
2018-10-03T16:04:41.419Z,18.90
2018-10-03T16:07:09.800Z,16.90
2018-10-03T16:09:38.258Z,16.87
2018-10-03T16:12:07.129Z,18.90
2018-10-03T16:14:35.640Z,15.77
2018-10-03T16:17:04.025Z,13.70
2018-10-03T16:19:32.415Z,14.87
2018-10-03T16:22:00.855Z,15.80
2018-10-03T16:24:29.313Z,15.67
2018-10-03T16:26:57.725Z,14.83
2018-10-03T16:29:26.114Z,23.20
2018-10-03T16:31:54.637Z,24.30
2018-10-03T16:34:23.069Z,18.43
2018-10-03T16:36:51.483Z,22.23
2018-10-03T16:39:19.876Z,20.40
2018-10-03T16:41:48.302Z,20.90
2018-10-03T16:44:16.732Z,19.73
2018-10-03T16:46:45.144Z,20.03
2018-10-03T16:49:13.517Z,16.73
2018-10-03T16:51:41.904Z,16.30
2018-10-03T16:54:10.307Z,12.67
2018-10-03T16:56:38.675Z,15.97
2018-10-03T16:59:07.226Z,12.23
2018-10-03T17:01:36.789Z,16.60
2018-10-03T17:04:05.454Z,17.30
2018-10-03T17:06:33.891Z,17.30
2018-10-03T17:09:02.301Z,17.03
2018-10-03T17:11:30.692Z,14.70
2018-10-03T17:14:35.667Z,13.77
2018-10-03T17:17:04.994Z,13.50
2018-10-03T17:19:33.455Z,16.23
2018-10-03T17:22:02.266Z,13.37
2018-10-03T17:24:31.951Z,14.23
2018-10-03T17:27:00.581Z,11.73
2018-10-03T17:29:28.951Z,12.27
2018-10-03T17:31:57.427Z,17.43
2018-10-03T17:34:26.021Z,12.93
2018-10-03T17:36:55.311Z,14.87
2018-10-03T17:39:24.814Z,15.17
2018-10-03T17:41:53.484Z,13.97
2018-10-03T17:44:22.411Z,17.63
2018-10-03T17:46:52.000Z,14.17
2018-10-03T17:49:20.392Z,17.50
2018-10-03T17:51:48.896Z,19.07
2018-10-03T17:54:17.366Z,18.30
2018-10-03T17:56:45.877Z,19.77
2018-10-03T17:59:14.340Z,24.10
2018-10-03T18:01:44.880Z,21.87
2018-10-03T18:04:13.280Z,19.60
2018-10-03T18:06:41.748Z,21.13
2018-10-03T18:09:11.425Z,19.30
2018-10-03T18:11:39.977Z,26.97
2018-10-03T18:14:08.596Z,23.80
2018-10-03T18:16:36.992Z,20.17
2018-10-03T18:19:05.456Z,18.87
2018-10-03T18:21:34.220Z,19.07
2018-10-03T18:24:02.648Z,27.53
2018-10-03T18:26:31.681Z,31.97
2018-10-03T18:29:00.248Z,40.67
2018-10-03T18:31:28.753Z,34.33
2018-10-03T18:33:57.500Z,38.37
2018-10-03T18:36:26.517Z,37.80
2018-10-03T18:38:55.396Z,32.17
2018-10-03T18:41:24.274Z,30.90
2018-10-03T18:43:53.269Z,33.53
2018-10-03T18:46:22.027Z,31.57
2018-10-03T18:48:51.138Z,29.57
2018-10-03T18:51:19.953Z,27.63
2018-10-03T18:53:48.935Z,34.23
2018-10-03T18:56:17.803Z,29.13
2018-10-03T18:58:46.614Z,27.07
2018-10-03T19:01:15.506Z,52.07
2018-10-03T19:03:46.648Z,85.07
2018-10-03T19:06:15.831Z,84.33
2018-10-03T19:08:45.047Z,106.90
2018-10-03T19:11:14.349Z,106.80
2018-10-03T19:13:43.544Z,83.90
2018-10-03T19:16:12.849Z,73.47
2018-10-03T19:18:42.145Z,70.37
2018-10-03T19:21:11.328Z,75.57
2018-10-03T19:23:41.134Z,73.63
2018-10-03T19:26:10.086Z,70.67
2018-10-03T19:28:39.627Z,63.40
2018-10-03T19:31:08.647Z,64.97
2018-10-03T19:33:37.846Z,95.27
2018-10-03T19:36:06.636Z,223.40
2018-10-03T19:38:35.935Z,162.77
2018-10-03T19:41:05.990Z,164.87
2018-10-03T19:43:36.100Z,149.63
2018-10-03T19:46:05.437Z,127.67
2018-10-03T19:48:34.257Z,114.30
2018-10-03T19:51:02.845Z,105.67
2018-10-03T19:53:33.036Z,106.70
2018-10-03T19:56:02.952Z,105.93
2018-10-03T19:58:32.459Z,97.57
2018-10-03T20:01:00.942Z,103.60
2018-10-03T20:03:30.273Z,112.33
2018-10-03T20:05:58.996Z,172.00
2018-10-03T20:08:27.429Z,179.90
2018-10-03T20:10:55.951Z,131.83
2018-10-03T20:13:24.834Z,123.80
2018-10-03T20:15:53.326Z,113.13
2018-10-03T20:18:22.332Z,106.50
2018-10-03T20:20:51.245Z,106.67
2018-10-03T20:23:20.947Z,103.33
2018-10-03T20:25:50.007Z,102.33
2018-10-03T20:28:18.404Z,100.43
2018-10-03T20:30:47.082Z,97.03
2018-10-03T20:33:15.459Z,88.43
2018-10-03T20:35:44.251Z,89.37
2018-10-03T20:38:12.644Z,83.40
2018-10-03T20:40:41.457Z,81.23
2018-10-03T20:43:10.488Z,80.10
2018-10-03T20:45:38.890Z,82.17
2018-10-03T20:48:07.311Z,82.60
2018-10-03T20:50:35.909Z,80.10
2018-10-03T20:53:04.363Z,75.40
2018-10-03T20:55:32.828Z,75.27
2018-10-03T20:58:01.205Z,74.23
2018-10-03T21:00:29.582Z,107.23
2018-10-03T21:02:58.004Z,153.37
2018-10-03T21:05:26.474Z,123.37
2018-10-03T21:07:54.987Z,113.77
2018-10-03T21:10:23.464Z,102.53
2018-10-03T21:12:51.889Z,95.73
2018-10-03T21:15:20.291Z,93.33
2018-10-03T21:17:48.707Z,95.60
2018-10-03T21:20:17.229Z,93.37
2018-10-03T21:22:45.708Z,90.10
2018-10-03T21:25:14.356Z,90.30
2018-10-03T21:27:42.917Z,77.27
2018-10-03T21:30:11.333Z,70.13
2018-10-03T21:32:39.783Z,78.53
2018-10-03T21:35:08.306Z,76.37
2018-10-03T21:37:36.694Z,74.57
2018-10-03T21:40:05.276Z,73.10
2018-10-03T21:42:33.709Z,72.87
2018-10-03T21:45:02.106Z,74.13
2018-10-03T21:47:30.635Z,72.60
2018-10-03T21:49:59.007Z,70.30
2018-10-03T21:52:27.407Z,71.57
2018-10-03T21:54:55.792Z,72.43
2018-10-03T21:57:24.177Z,71.67
2018-10-03T21:59:52.555Z,69.90
2018-10-03T22:02:20.935Z,67.80
2018-10-03T22:04:49.349Z,66.03
2018-10-03T22:07:17.723Z,63.80
2018-10-03T22:09:46.124Z,67.03
2018-10-03T22:12:14.519Z,80.67
2018-10-03T22:14:42.904Z,90.43
2018-10-03T22:17:16.691Z,99.80
2018-10-03T22:19:45.127Z,92.83
2018-10-03T22:22:13.588Z,78.33
2018-10-03T22:24:41.987Z,75.20
2018-10-03T22:27:10.363Z,78.63
2018-10-03T22:29:39.201Z,75.47
2018-10-03T22:32:08.143Z,108.90
2018-10-03T22:34:36.635Z,129.03
2018-10-03T22:37:05.027Z,119.37
2018-10-03T22:39:33.688Z,95.17
2018-10-03T22:42:02.116Z,100.63
2018-10-03T22:44:30.963Z,100.23
2018-10-03T22:46:59.439Z,93.63
2018-10-03T22:49:27.920Z,97.97
2018-10-03T22:51:56.291Z,94.27
2018-10-03T22:54:24.697Z,95.67
2018-10-03T22:56:53.108Z,93.07
2018-10-03T22:59:21.512Z,94.97
2018-10-03T23:01:49.878Z,96.83
2018-10-03T23:04:18.332Z,99.57
2018-10-03T23:06:46.719Z,95.83
2018-10-03T23:09:15.112Z,96.17
2018-10-03T23:11:43.542Z,97.53
2018-10-03T23:14:11.950Z,106.97
2018-10-03T23:16:40.313Z,105.37
2018-10-03T23:19:08.707Z,110.13
2018-10-03T23:21:37.081Z,110.50
2018-10-03T23:24:05.473Z,115.50
2018-10-03T23:26:33.859Z,117.33
2018-10-03T23:29:02.328Z,111.07
2018-10-03T23:31:30.700Z,112.77
2018-10-03T23:33:59.092Z,114.13
2018-10-03T23:36:27.476Z,113.73
2018-10-03T23:38:55.919Z,115.80
2018-10-03T23:41:24.336Z,111.10
2018-10-03T23:43:53.344Z,113.33
2018-10-03T23:46:21.730Z,102.00
2018-10-03T23:48:50.124Z,108.50
2018-10-03T23:51:18.494Z,108.97
2018-10-03T23:53:46.867Z,105.47
2018-10-03T23:56:15.823Z,101.97
2018-10-03T23:58:44.192Z,96.60
